sensor_id;sensor_type;location;lat;lon;timestamp;P1;P2;P0
31163;PMS5003;17796;49.296;-117.656;2023-04-01T00:11:14;18;16;
31163;PMS5003;17796;49.296;-117.656;2023-04-01T00:26:19;22;18;
31163;PMS5003;17796;49.296;-117.656;2023-04-01T00:41:23;18;16;
31163;PMS5003;17796;49.296;-117.656;2023-04-01T00:56:30;15;15;
31163;PMS5003;17796;49.296;-117.656;2023-04-01T01:11:37;16;12;
31163;PMS5003;17796;49.296;-117.656;2023-04-01T01:26:52;12;12;
31163;PMS5003;17796;49.296;-117.656;2023-04-01T01:41:59;15;13;
31163;PMS5003;17796;49.296;-117.656;2023-04-01T01:57:06;10;8;
31163;PMS5003;17796;49.296;-117.656;2023-04-01T02:12:13;15;11;
31163;PMS5003;17796;49.296;-117.656;2023-04-01T02:27:20;9;9;
31163;PMS5003;17796;49.296;-117.656;2023-04-01T02:42:23;9;9;
31163;PMS5003;17796;49.296;-117.656;2023-04-01T02:57:27;13;13;
31163;PMS5003;17796;49.296;-117.656;2023-04-01T03:12:31;14;10;
31163;PMS5003;17796;49.296;-117.656;2023-04-01T03:27:35;10;6;
31163;PMS5003;17796;49.296;-117.656;2023-04-01T03:42:38;30;21;
31163;PMS5003;17796;49.296;-117.656;2023-04-01T03:57:42;8;4;
31163;PMS5003;17796;49.296;-117.656;2023-04-01T04:12:46;4;3;
31163;PMS5003;17796;49.296;-117.656;2023-04-01T04:27:49;3;3;
31163;PMS5003;17796;49.296;-117.656;2023-04-01T04:42:53;2;2;
31163;PMS5003;17796;49.296;-117.656;2023-04-01T04:57:57;4;3;
31163;PMS5003;17796;49.296;-117.656;2023-04-01T05:13:00;2;2;
31163;PMS5003;17796;49.296;-117.656;2023-04-01T05:28:04;2;2;
31163;PMS5003;17796;49.296;-117.656;2023-04-01T05:43:08;2;2;
31163;PMS5003;17796;49.296;-117.656;2023-04-01T05:58:12;2;2;
31163;PMS5003;17796;49.296;-117.656;2023-04-01T06:13:24;3;3;
31163;PMS5003;17796;49.296;-117.656;2023-04-01T06:28:51;1;1;
31163;PMS5003;17796;49.296;-117.656;2023-04-01T06:44:04;7;3;
31163;PMS5003;17796;49.296;-117.656;2023-04-01T06:59:13;3;3;
31163;PMS5003;17796;49.296;-117.656;2023-04-01T07:14:23;2;2;
31163;PMS5003;17796;49.296;-117.656;2023-04-01T07:29:29;3;3;
31163;PMS5003;17796;49.296;-117.656;2023-04-01T07:44:38;2;2;
31163;PMS5003;17796;49.296;-117.656;2023-04-01T07:59:56;3;2;
31163;PMS5003;17796;49.296;-117.656;2023-04-01T08:15:11;4;4;
31163;PMS5003;17796;49.296;-117.656;2023-04-01T08:30:20;3;2;
31163;PMS5003;17796;49.296;-117.656;2023-04-01T08:45:45;2;2;
31163;PMS5003;17796;49.296;-117.656;2023-04-01T09:01:09;4;4;
31163;PMS5003;17796;49.296;-117.656;2023-04-01T09:16:23;5;3;
31163;PMS5003;17796;49.296;-117.656;2023-04-01T09:32:07;3;3;
31163;PMS5003;17796;49.296;-117.656;2023-04-01T09:47:27;3;3;
31163;PMS5003;17796;49.296;-117.656;2023-04-01T10:02:59;3;2;
31163;PMS5003;17796;49.296;-117.656;2023-04-01T10:18:44;5;2;
31163;PMS5003;17796;49.296;-117.656;2023-04-01T10:34:13;2;2;
31163;PMS5003;17796;49.296;-117.656;2023-04-01T10:49:41;2;2;
31163;PMS5003;17796;49.296;-117.656;2023-04-01T11:23:06;1;1;
31163;PMS5003;17796;49.296;-117.656;2023-04-01T11:38:26;5;5;
31163;PMS5003;17796;49.296;-117.656;2023-04-01T11:53:42;2;2;
31163;PMS5003;17796;49.296;-117.656;2023-04-01T12:08:54;1;1;
31163;PMS5003;17796;49.296;-117.656;2023-04-01T12:24:19;0;0;
31163;PMS5003;17796;49.296;-117.656;2023-04-01T12:39:40;0;0;
31163;PMS5003;17796;49.296;-117.656;2023-04-01T12:55:07;1;1;
31163;PMS5003;17796;49.296;-117.656;2023-04-01T13:10:32;0;0;
31163;PMS5003;17796;49.296;-117.656;2023-04-01T13:25:46;1;1;
31163;PMS5003;17796;49.296;-117.656;2023-04-01T13:41:01;1;1;
31163;PMS5003;17796;49.296;-117.656;2023-04-01T13:56:21;2;2;
31163;PMS5003;17796;49.296;-117.656;2023-04-01T14:11:36;1;1;
31163;PMS5003;17796;49.296;-117.656;2023-04-01T14:27:06;2;2;
31163;PMS5003;17796;49.296;-117.656;2023-04-01T14:42:31;12;11;
31163;PMS5003;17796;49.296;-117.656;2023-04-01T14:57:40;3;3;
31163;PMS5003;17796;49.296;-117.656;2023-04-01T15:12:52;2;2;
31163;PMS5003;17796;49.296;-117.656;2023-04-01T15:28:08;3;2;
31163;PMS5003;17796;49.296;-117.656;2023-04-01T15:43:25;7;4;
31163;PMS5003;17796;49.296;-117.656;2023-04-01T15:58:43;4;3;
31163;PMS5003;17796;49.296;-117.656;2023-04-01T16:14:02;5;5;
31163;PMS5003;17796;49.296;-117.656;2023-04-01T16:29:17;3;3;
31163;PMS5003;17796;49.296;-117.656;2023-04-01T16:44:25;3;3;
31163;PMS5003;17796;49.296;-117.656;2023-04-01T16:59:36;2;2;
31163;PMS5003;17796;49.296;-117.656;2023-04-01T17:14:48;2;2;
31163;PMS5003;17796;49.296;-117.656;2023-04-01T17:30:12;5;5;
31163;PMS5003;17796;49.296;-117.656;2023-04-01T17:45:24;7;4;
31163;PMS5003;17796;49.296;-117.656;2023-04-01T18:00:33;8;5;
31163;PMS5003;17796;49.296;-117.656;2023-04-01T18:15:45;3;3;
31163;PMS5003;17796;49.296;-117.656;2023-04-01T18:30:55;1;1;
31163;PMS5003;17796;49.296;-117.656;2023-04-01T18:46:02;4;4;
31163;PMS5003;17796;49.296;-117.656;2023-04-01T19:01:16;3;3;
31163;PMS5003;17796;49.296;-117.656;2023-04-01T19:16:31;3;3;
31163;PMS5003;17796;49.296;-117.656;2023-04-01T19:31:50;4;2;
31163;PMS5003;17796;49.296;-117.656;2023-04-01T19:47:01;4;4;
31163;PMS5003;17796;49.296;-117.656;2023-04-01T20:02:57;3;3;
31163;PMS5003;17796;49.296;-117.656;2023-04-01T20:18:04;4;4;
31163;PMS5003;17796;49.296;-117.656;2023-04-01T20:33:24;4;4;
31163;PMS5003;17796;49.296;-117.656;2023-04-01T20:48:57;4;4;
31163;PMS5003;17796;49.296;-117.656;2023-04-01T21:04:21;2;2;
31163;PMS5003;17796;49.296;-117.656;2023-04-01T21:19:39;3;2;
31163;PMS5003;17796;49.296;-117.656;2023-04-01T21:34:50;1;1;
31163;PMS5003;17796;49.296;-117.656;2023-04-01T21:50:31;3;3;
31163;PMS5003;17796;49.296;-117.656;2023-04-01T22:05:45;4;3;
31163;PMS5003;17796;49.296;-117.656;2023-04-01T22:20:56;4;3;
31163;PMS5003;17796;49.296;-117.656;2023-04-01T22:36:09;3;3;
31163;PMS5003;17796;49.296;-117.656;2023-04-01T22:51:18;3;3;
31163;PMS5003;17796;49.296;-117.656;2023-04-01T23:06:27;4;3;
31163;PMS5003;17796;49.296;-117.656;2023-04-01T23:21:37;2;2;
31163;PMS5003;17796;49.296;-117.656;2023-04-01T23:36:45;2;2;
31163;PMS5003;17796;49.296;-117.656;2023-04-01T23:51:53;3;3;
